Ford, Virginia
Current Conditions -  °F | °C
As of 2:35 PM on Friday 31 Oct 2014 (Local Time) from KBKT Reporting Station
Broken Clouds Broken Clouds  
Wind Chill: 57°   Ceiling: 4700
Heat Index: 57°   Visibility: 10mi
Dew Point: 39°   Wind: 5mph
Humidity: 51%   Direction: 320°NW
Pressure: 29.85"   Gusts: NA
Location:  37.15°N, 77.75°W
Report Text: KBKT 311835Z AUTO 32004KT 10SM BKN047 14/04 A2985 RMK AO1 T01370037
Loading
Personal Weather Stations






























Interactive Weather Map
Tropical Storm Tracking
New forecast layout! Learn more

10-Day Weather Forecast

Advertisements
Track Severe Weather on mobile